Time;durP1;ratioP1;P1;durP2;ratioP2;P2;SDS_P1;SDS_P2;PMS_P1;PMS_P2;Temp;Humidity;BMP_temperature;BMP_pressure;BME280_temperature;BME280_humidity;BME280_pressure;Samples;Min_cycle;Max_cycle;Signal;HPM_P1;HPM_P2
2021/01/11 00:01:43;;;;;;;305.10;107.10;;;;;;;;;;5032863;28;20075;-70
2021/01/11 00:04:09;;;;;;;247.68;88.45;;;;;;;;;;5032994;28;20375;-70
2021/01/11 00:06:38;;;;;;;262.10;95.30;;;;;;;;;;5032973;28;20124;-70
2021/01/11 00:09:04;;;;;;;258.42;97.25;;;;;;;;;;5033131;28;20067;-70
2021/01/11 00:11:32;;;;;;;192.48;79.80;;;;;;;;;;5032668;28;20029;-70
2021/01/11 00:13:58;;;;;;;145.05;64.28;;;;;;;;;;5034181;28;20116;-70
2021/01/11 00:16:24;;;;;;;110.82;50.50;;;;;;;;;;5036573;28;20068;-70
2021/01/11 00:18:49;;;;;;;81.07;38.95;;;;;;;;;;5036646;28;20040;-70
2021/01/11 00:21:15;;;;;;;81.07;38.03;;;;;;;;;;5035954;28;20034;-70
2021/01/11 00:23:41;;;;;;;74.30;37.72;;;;;;;;;;5036232;28;20025;-70
2021/01/11 00:26:08;;;;;;;85.03;39.83;;;;;;;;;;5036132;28;20028;-70
2021/01/11 00:28:34;;;;;;;77.60;38.67;;;;;;;;;;5036229;28;20028;-70
2021/01/11 00:31:03;;;;;;;56.17;29.70;;;;;;;;;;5036301;28;20033;-70
2021/01/11 00:33:29;;;;;;;50.33;26.80;;;;;;;;;;5036357;28;20037;-70
2021/01/11 00:35:54;;;;;;;64.72;31.92;;;;;;;;;;5067874;28;20033;-70
2021/01/11 00:38:20;;;;;;;105.05;47.85;;;;;;;;;;5034534;28;20021;-70
2021/01/11 00:40:45;;;;;;;102.75;43.75;;;;;;;;;;5035935;28;20113;-70
2021/01/11 00:43:11;;;;;;;102.00;45.63;;;;;;;;;;5035834;28;20017;-70
2021/01/11 00:45:41;;;;;;;113.38;47.95;;;;;;;;;;5035909;28;20029;-70
2021/01/11 00:48:06;;;;;;;114.80;49.13;;;;;;;;;;5035863;28;20036;-70
2021/01/11 00:50:32;;;;;;;82.00;38.60;;;;;;;;;;5035696;28;20037;-70
2021/01/11 00:52:57;;;;;;;62.85;32.08;;;;;;;;;;5034548;28;20022;-69
2021/01/11 00:55:24;;;;;;;62.85;33.00;;;;;;;;;;5050239;28;20041;-69
2021/01/11 00:57:59;;;;;;;80.32;41.70;;;;;;;;;;5049961;28;20033;-69
2021/01/11 01:00:28;;;;;;;67.00;36.22;;;;;;;;;;5067688;28;20034;-69
2021/01/11 01:03:05;;;;;;;65.20;33.83;;;;;;;;;;5034590;28;20014;-69
2021/01/11 01:05:30;;;;;;;79.35;35.42;;;;;;;;;;5067729;28;20037;-69
2021/01/11 01:07:56;;;;;;;75.55;33.92;;;;;;;;;;5067784;28;20360;-69
2021/01/11 01:10:21;;;;;;;59.95;28.67;;;;;;;;;;5035215;28;20043;-69
2021/01/11 01:12:47;;;;;;;52.72;25.83;;;;;;;;;;5035371;28;20480;-69
2021/01/11 01:15:13;;;;;;;55.80;26.35;;;;;;;;;;5034717;28;20087;-69
2021/01/11 01:17:38;;;;;;;66.10;29.90;;;;;;;;;;5035161;28;20022;-69
2021/01/11 01:20:05;;;;;;;70.90;30.70;;;;;;;;;;5035187;28;20423;-69
2021/01/11 01:22:30;;;;;;;65.40;29.63;;;;;;;;;;5035265;28;20101;-69
2021/01/11 01:24:56;;;;;;;77.25;32.13;;;;;;;;;;5034903;28;20137;-69
2021/01/11 01:27:21;;;;;;;99.10;39.45;;;;;;;;;;5035137;28;20029;-70
2021/01/11 01:29:47;;;;;;;94.28;36.90;;;;;;;;;;5067027;28;20026;-69
2021/01/11 01:32:12;;;;;;;72.47;30.70;;;;;;;;;;5035048;28;20549;-69
2021/01/11 01:34:38;;;;;;;42.28;22.38;;;;;;;;;;5034755;28;20048;-70
2021/01/11 01:37:04;;;;;;;41.55;21.02;;;;;;;;;;5035114;28;20021;-70
2021/01/11 01:39:29;;;;;;;37.65;20.48;;;;;;;;;;5035164;28;20033;-69
2021/01/11 01:41:55;;;;;;;40.28;21.25;;;;;;;;;;5033462;28;20020;-70
2021/01/11 01:44:20;;;;;;;36.42;20.00;;;;;;;;;;5033325;28;20083;-70
2021/01/11 01:46:46;;;;;;;41.40;20.67;;;;;;;;;;5034772;28;20087;-70
2021/01/11 01:49:11;;;;;;;39.55;21.63;;;;;;;;;;5034739;28;20119;-70
2021/01/11 01:51:38;;;;;;;46.13;23.17;;;;;;;;;;5033294;28;20022;-70
2021/01/11 01:54:03;;;;;;;49.95;24.48;;;;;;;;;;5034037;28;20022;-69
2021/01/11 01:56:29;;;;;;;48.45;23.63;;;;;;;;;;5034575;28;20051;-70
2021/01/11 01:58:55;;;;;;;47.63;23.98;;;;;;;;;;5034426;28;20361;-70
2021/01/11 02:01:21;;;;;;;41.00;23.67;;;;;;;;;;5034421;28;20020;-70
2021/01/11 02:03:48;;;;;;;47.00;24.60;;;;;;;;;;5034671;28;20026;-70
2021/01/11 02:06:14;;;;;;;54.35;27.95;;;;;;;;;;5034292;28;20387;-70
2021/01/11 02:08:50;;;;;;;51.58;27.75;;;;;;;;;;5033972;28;20032;-70
2021/01/11 02:11:37;;;;;;;51.92;26.70;;;;;;;;;;5034200;28;20029;-70
2021/01/11 02:14:06;;;;;;;69.03;31.42;;;;;;;;;;5034141;28;20030;-69
2021/01/11 02:16:45;;;;;;;84.13;37.80;;;;;;;;;;5033952;28;20025;-69
2021/01/11 02:19:16;;;;;;;68.07;32.25;;;;;;;;;;5034201;28;20025;-69
2021/01/11 02:21:42;;;;;;;;;;;;;;;;;;5034630;28;20052;-69
2021/01/11 02:24:25;;;;;;;59.33;29.52;;;;;;;;;;5033933;28;20000;-69
2021/01/11 02:27:00;;;;;;;59.25;29.15;;;;;;;;;;5034109;28;20088;-69
2021/01/11 02:29:30;;;;;;;59.05;29.75;;;;;;;;;;5033011;28;20041;-69
2021/01/11 02:31:57;;;;;;;64.40;32.08;;;;;;;;;;5032482;28;20021;-70
2021/01/11 02:34:23;;;;;;;63.13;31.20;;;;;;;;;;5033508;28;20030;-69
2021/01/11 02:36:51;;;;;;;71.05;35.65;;;;;;;;;;5033089;28;20360;-69
2021/01/11 02:39:16;;;;;;;66.60;33.55;;;;;;;;;;5033666;28;20028;-69
2021/01/11 02:41:42;;;;;;;65.22;33.00;;;;;;;;;;5033535;28;20379;-69
2021/01/11 02:44:07;;;;;;;63.38;32.25;;;;;;;;;;5033452;28;20037;-69
2021/01/11 02:46:33;;;;;;;60.22;31.42;;;;;;;;;;5033734;28;20032;-69
2021/01/11 02:49:04;;;;;;;87.93;38.67;;;;;;;;;;5033604;28;20041;-69
2021/01/11 02:51:50;;;;;;;78.07;37.25;;;;;;;;;;5033531;28;20037;-69
2021/01/11 02:54:18;;;;;;;86.28;38.05;;;;;;;;;;5033026;28;20063;-69
2021/01/11 02:56:47;;;;;;;66.13;33.10;;;;;;;;;;5033597;28;20408;-69
2021/01/11 02:59:32;;;;;;;63.95;32.05;;;;;;;;;;5033642;28;20025;-69
2021/01/11 03:02:01;;;;;;;58.42;30.17;;;;;;;;;;5033669;28;20546;-69
2021/01/11 03:04:27;;;;;;;58.55;31.13;;;;;;;;;;5032891;28;20035;-69
2021/01/11 03:06:54;;;;;;;60.53;30.27;;;;;;;;;;5033664;28;20033;-69
2021/01/11 03:09:21;;;;;;;58.65;30.50;;;;;;;;;;5033892;28;20452;-69
2021/01/11 03:11:46;;;;;;;63.58;30.42;;;;;;;;;;5031922;28;20045;-69
2021/01/11 03:14:12;;;;;;;58.60;30.00;;;;;;;;;;5065572;28;20073;-69
2021/01/11 03:16:37;;;;;;;57.08;28.95;;;;;;;;;;5065287;28;20029;-70
2021/01/11 03:19:03;;;;;;;64.30;30.42;;;;;;;;;;5033104;28;20023;-70
2021/01/11 03:21:31;;;;;;;57.92;28.35;;;;;;;;;;5032088;28;20357;-70
2021/01/11 03:23:57;;;;;;;55.42;28.40;;;;;;;;;;5032116;28;20022;-70
2021/01/11 03:26:23;;;;;;;56.13;28.48;;;;;;;;;;5033459;28;20488;-70
2021/01/11 03:28:49;;;;;;;53.17;27.15;;;;;;;;;;5033297;28;20029;-70
2021/01/11 03:31:15;;;;;;;48.55;26.42;;;;;;;;;;5048435;28;20087;-70
2021/01/11 03:33:41;;;;;;;51.88;27.20;;;;;;;;;;5033120;28;20024;-70
2021/01/11 03:36:06;;;;;;;46.55;24.67;;;;;;;;;;5033036;28;20025;-70
2021/01/11 03:38:32;;;;;;;51.22;26.13;;;;;;;;;;5033253;28;20044;-70
2021/01/11 03:41:01;;;;;;;48.25;24.98;;;;;;;;;;5033177;28;20031;-70
2021/01/11 03:43:26;;;;;;;53.53;27.38;;;;;;;;;;5033164;28;20021;-70
2021/01/11 03:45:52;;;;;;;49.45;26.98;;;;;;;;;;5032990;28;20060;-69
2021/01/11 03:48:17;;;;;;;46.00;24.65;;;;;;;;;;5035248;28;20049;-69
2021/01/11 03:50:43;;;;;;;44.13;25.50;;;;;;;;;;5037115;28;20484;-69
2021/01/11 03:53:08;;;;;;;44.13;24.45;;;;;;;;;;5036811;28;20033;-69
2021/01/11 03:55:38;;;;;;;43.45;23.40;;;;;;;;;;5036280;28;20056;-69
2021/01/11 03:58:08;;;;;;;40.05;22.33;;;;;;;;;;5068875;28;20040;-69
2021/01/11 04:00:35;;;;;;;41.63;22.25;;;;;;;;;;5035407;28;20112;-69
2021/01/11 04:03:02;;;;;;;40.70;21.88;;;;;;;;;;5035275;28;20013;-69
2021/01/11 04:05:28;;;;;;;42.08;21.77;;;;;;;;;;5036663;28;20037;-68
2021/01/11 04:07:53;;;;;;;41.65;23.58;;;;;;;;;;5036672;28;20027;-69
2021/01/11 04:10:20;;;;;;;40.00;22.42;;;;;;;;;;5036614;28;20167;-68
2021/01/11 04:12:45;;;;;;;38.95;21.45;;;;;;;;;;5036395;28;20104;-69
2021/01/11 04:15:11;;;;;;;38.55;20.13;;;;;;;;;;5036562;28;20518;-69
2021/01/11 04:17:37;;;;;;;36.65;21.23;;;;;;;;;;5036348;28;20025;-69
2021/01/11 04:20:03;;;;;;;35.15;20.08;;;;;;;;;;5036475;28;20025;-69
2021/01/11 04:22:29;;;;;;;35.70;19.17;;;;;;;;;;5035075;28;20364;-69
2021/01/11 04:24:54;;;;;;;33.25;19.27;;;;;;;;;;5036043;28;20036;-69
2021/01/11 04:27:20;;;;;;;32.17;18.13;;;;;;;;;;5036497;28;20032;-69
2021/01/11 04:29:45;;;;;;;39.75;23.77;;;;;;;;;;5036337;28;20021;-69
2021/01/11 04:32:11;;;;;;;36.42;20.10;;;;;;;;;;5035976;28;20083;-69
2021/01/11 04:34:36;;;;;;;34.88;18.73;;;;;;;;;;5035931;28;20038;-69
2021/01/11 04:37:02;;;;;;;34.92;20.00;;;;;;;;;;5036108;28;20017;-69
2021/01/11 04:39:27;;;;;;;35.85;19.40;;;;;;;;;;5034676;28;20036;-69
2021/01/11 04:41:53;;;;;;;38.47;20.33;;;;;;;;;;5035964;28;20527;-70
2021/01/11 04:44:20;;;;;;;37.38;20.05;;;;;;;;;;5035654;28;20034;-70
2021/01/11 04:46:46;;;;;;;35.97;19.77;;;;;;;;;;5035814;28;20379;-70
2021/01/11 04:49:12;;;;;;;37.28;20.17;;;;;;;;;;5035719;28;20159;-70
2021/01/11 04:51:41;;;;;;;43.45;21.80;;;;;;;;;;5035984;28;20021;-70
2021/01/11 04:54:07;;;;;;;43.00;21.65;;;;;;;;;;5035164;28;20503;-70
2021/01/11 04:56:38;;;;;;;49.63;22.77;;;;;;;;;;5035800;28;20052;-70
2021/01/11 04:59:06;;;;;;;45.00;21.55;;;;;;;;;;5034825;28;20029;-70
2021/01/11 05:01:35;;;;;;;44.53;21.73;;;;;;;;;;5035727;28;20022;-70
2021/01/11 05:04:10;;;;;;;47.13;23.33;;;;;;;;;;5035600;28;20022;-70
2021/01/11 05:06:37;;;;;;;47.58;23.77;;;;;;;;;;5035678;28;20033;-70
2021/01/11 05:09:06;;;;;;;49.63;27.30;;;;;;;;;;5035523;28;20025;-70
2021/01/11 05:11:33;;;;;;;56.67;29.95;;;;;;;;;;5034074;28;20392;-70
2021/01/11 05:13:58;;;;;;;63.25;35.15;;;;;;;;;;5060008;28;20022;-71
2021/01/11 05:16:24;;;;;;;61.97;35.05;;;;;;;;;;5034495;28;20022;-70
2021/01/11 05:18:51;;;;;;;60.30;33.58;;;;;;;;;;5033979;28;20480;-70
2021/01/11 05:21:35;;;;;;;99.25;36.55;;;;;;;;;;5034320;28;20056;-70
2021/01/11 05:24:01;;;;;;;61.40;27.33;;;;;;;;;;5034081;28;20029;-70
2021/01/11 05:26:37;;;;;;;45.05;22.13;;;;;;;;;;5035082;28;20113;-70
2021/01/11 05:29:15;;;;;;;39.30;20.35;;;;;;;;;;5035037;28;20083;-68
2021/01/11 05:31:51;;;;;;;33.53;20.25;;;;;;;;;;5035199;28;20034;-68
2021/01/11 05:34:17;;;;;;;34.28;19.17;;;;;;;;;;5033525;28;20032;-68
2021/01/11 05:36:44;;;;;;;34.35;20.08;;;;;;;;;;5035118;28;20097;-68
2021/01/11 05:39:09;;;;;;;35.50;19.60;;;;;;;;;;5033604;28;20045;-68
2021/01/11 05:41:39;;;;;;;37.28;20.85;;;;;;;;;;5034921;28;20029;-68
2021/01/11 05:44:15;;;;;;;37.13;20.02;;;;;;;;;;5034718;28;20104;-67
2021/01/11 05:46:41;;;;;;;37.25;20.67;;;;;;;;;;5033728;28;20036;-67
2021/01/11 05:49:11;;;;;;;39.13;22.33;;;;;;;;;;5050252;28;20053;-67
2021/01/11 05:51:38;;;;;;;45.80;23.80;;;;;;;;;;5034669;28;20026;-67
2021/01/11 05:54:04;;;;;;;42.40;22.60;;;;;;;;;;5034189;28;20021;-67
2021/01/11 05:56:49;;;;;;;44.80;22.85;;;;;;;;;;5034626;28;20025;-66
2021/01/11 05:59:14;;;;;;;59.85;31.50;;;;;;;;;;5034616;28;20112;-66
2021/01/11 06:01:40;;;;;;;64.38;32.75;;;;;;;;;;5033020;28;20492;-66
2021/01/11 06:04:05;;;;;;;52.67;25.75;;;;;;;;;;5033162;28;20125;-66
2021/01/11 06:06:31;;;;;;;57.53;26.77;;;;;;;;;;5049704;28;20060;-67
2021/01/11 06:08:58;;;;;;;51.85;23.73;;;;;;;;;;5034302;28;20025;-67
2021/01/11 06:11:27;;;;;;;49.03;25.13;;;;;;;;;;5033309;28;20112;-66
2021/01/11 06:13:53;;;;;;;45.28;24.17;;;;;;;;;;5034306;28;20490;-66
2021/01/11 06:16:19;;;;;;;43.20;22.10;;;;;;;;;;5066090;28;20159;-66
2021/01/11 06:18:52;;;;;;;46.47;26.17;;;;;;;;;;5033764;28;20484;-65
2021/01/11 06:21:19;;;;;;;49.15;26.65;;;;;;;;;;5033829;28;20032;-67
2021/01/11 06:23:44;;;;;;;52.95;25.80;;;;;;;;;;5033571;28;20101;-67
2021/01/11 06:26:32;;;;;;;71.55;30.58;;;;;;;;;;5033874;28;20575;-67
2021/01/11 06:28:57;;;;;;;69.13;30.15;;;;;;;;;;5033564;28;20033;-67
2021/01/11 06:31:28;;;;;;;73.45;31.60;;;;;;;;;;5033802;28;20500;-66
2021/01/11 06:33:53;;;;;;;;;;;;;;;;;;5033042;28;20026;-67
2021/01/11 06:36:19;;;;;;;100.75;42.15;;;;;;;;;;5033523;28;20381;-66
2021/01/11 06:38:45;;;;;;;90.78;36.55;;;;;;;;;;5033104;28;20519;-67
2021/01/11 06:41:12;;;;;;;83.18;36.78;;;;;;;;;;5033670;28;20026;-66
2021/01/11 06:43:39;;;;;;;94.05;44.20;;;;;;;;;;5033848;28;20022;-66
2021/01/11 06:46:04;;;;;;;151.27;83.60;;;;;;;;;;5032285;28;20021;-67
2021/01/11 06:48:34;;;;;;;114.57;65.47;;;;;;;;;;5032526;28;20534;-67
2021/01/11 06:51:06;;;;;;;94.32;44.10;;;;;;;;;;5033160;28;20032;-67
2021/01/11 06:53:32;;;;;;;77.82;39.13;;;;;;;;;;5032736;28;20025;-67
2021/01/11 06:56:10;;;;;;;76.88;39.22;;;;;;;;;;5033422;28;20171;-67
2021/01/11 06:58:37;;;;;;;65.95;32.90;;;;;;;;;;5033564;28;20037;-67
2021/01/11 07:01:12;;;;;;;59.70;29.52;;;;;;;;;;5033316;28;20040;-67
2021/01/11 07:03:44;;;;;;;53.40;27.13;;;;;;;;;;5033543;28;20109;-67
2021/01/11 07:06:28;;;;;;;54.65;26.63;;;;;;;;;;5032630;28;20544;-67
2021/01/11 07:09:02;;;;;;;60.83;30.55;;;;;;;;;;5033447;28;20067;-67
2021/01/11 07:11:34;;;;;;;94.65;41.10;;;;;;;;;;5033365;28;20025;-67
2021/01/11 07:14:00;;;;;;;73.90;32.90;;;;;;;;;;5033165;28;20026;-67
2021/01/11 07:16:49;;;;;;;73.53;33.22;;;;;;;;;;5032036;28;20419;-67
2021/01/11 07:19:19;;;;;;;73.00;35.33;;;;;;;;;;5029418;28;20480;-67
2021/01/11 07:21:46;;;;;;;68.40;36.38;;;;;;;;;;5029724;28;20040;-67
2021/01/11 07:24:14;;;;;;;67.50;36.70;;;;;;;;;;5035545;28;20044;-67
2021/01/11 07:30:18;;;;;;;65.10;35.80;;;;;;;;;;5018056;28;20093;-67
2021/01/11 07:36:19;;;;;;;158.07;84.93;;;;;;;;;;5017620;28;20117;-67
2021/01/11 07:42:21;;;;;;;196.38;106.55;;;;;;;;;;5017846;28;20060;-67
2021/01/11 07:48:21;;;;;;;97.30;52.28;;;;;;;;;;5017674;28;20028;-67
2021/01/11 07:50:47;;;;;;;86.65;45.53;;;;;;;;;;5017448;28;20392;-67
2021/01/11 07:53:12;;;;;;;79.88;43.63;;;;;;;;;;5016461;28;20383;-68
2021/01/11 07:55:40;;;;;;;73.15;40.28;;;;;;;;;;5014738;28;20053;-67
2021/01/11 07:58:05;;;;;;;74.00;39.38;;;;;;;;;;5016703;28;20427;-68
2021/01/11 08:00:31;;;;;;;72.60;37.58;;;;;;;;;;5017067;28;20034;-67
2021/01/11 08:02:57;;;;;;;70.18;37.80;;;;;;;;;;5016951;28;20468;-68
2021/01/11 08:09:00;;;;;;;65.57;34.08;;;;;;;;;;5017059;28;20109;-67
2021/01/11 08:15:03;;;;;;;68.20;36.88;;;;;;;;;;5017079;28;20064;-67
2021/01/11 08:21:08;;;;;;;66.25;37.38;;;;;;;;;;5017102;28;20076;-67
2021/01/11 08:27:13;;;;;;;47.05;24.45;;;;;;;;;;5017113;28;20036;-67
2021/01/11 08:29:41;;;;;;;57.42;30.27;;;;;;;;;;5016452;28;20026;-67
2021/01/11 08:32:10;;;;;;;74.72;38.78;;;;;;;;;;5016441;28;20105;-67
2021/01/11 08:34:36;;;;;;;76.95;41.15;;;;;;;;;;5015314;28;20034;-68
2021/01/11 08:37:18;;;;;;;82.38;45.75;;;;;;;;;;5016060;28;20071;-67
2021/01/11 08:39:53;;;;;;;83.00;45.28;;;;;;;;;;5016113;28;20022;-68
2021/01/11 08:42:19;;;;;;;78.97;43.90;;;;;;;;;;5016234;28;20030;-67
2021/01/11 08:44:45;;;;;;;79.28;41.92;;;;;;;;;;5016202;28;20044;-68
2021/01/11 08:47:11;;;;;;;76.95;41.83;;;;;;;;;;5015675;28;20033;-68
2021/01/11 08:49:55;;;;;;;81.50;41.95;;;;;;;;;;5016215;28;20080;-68
2021/01/11 08:52:25;;;;;;;81.13;41.42;;;;;;;;;;5016039;28;20492;-68
2021/01/11 08:54:50;;;;;;;81.13;42.33;;;;;;;;;;5015300;28;20053;-68
2021/01/11 08:57:15;;;;;;;84.75;43.45;;;;;;;;;;5016140;28;20109;-68
2021/01/11 08:59:50;;;;;;;86.50;43.90;;;;;;;;;;5015739;28;20476;-68
2021/01/11 09:02:26;;;;;;;87.10;45.85;;;;;;;;;;5015958;28;20095;-68
2021/01/11 09:04:51;;;;;;;88.32;45.47;;;;;;;;;;5015792;28;20026;-68
2021/01/11 09:07:30;;;;;;;88.55;45.95;;;;;;;;;;5015935;28;20495;-68
2021/01/11 09:09:56;;;;;;;85.05;44.72;;;;;;;;;;5015731;28;20060;-68
2021/01/11 09:12:29;;;;;;;89.95;45.72;;;;;;;;;;5015521;28;20468;-68
2021/01/11 09:14:55;;;;;;;83.95;45.80;;;;;;;;;;5015456;28;20057;-68
2021/01/11 09:17:28;;;;;;;84.70;45.03;;;;;;;;;;5015616;28;20416;-68
2021/01/11 09:19:54;;;;;;;86.65;46.40;;;;;;;;;;5014391;28;20022;-68
2021/01/11 09:22:29;;;;;;;94.70;49.20;;;;;;;;;;5015130;28;20024;-67
2021/01/11 09:24:54;;;;;;;86.05;45.75;;;;;;;;;;5025210;28;20029;-67
2021/01/11 09:27:20;;;;;;;90.65;48.75;;;;;;;;;;5035120;28;20022;-67
2021/01/11 09:29:45;;;;;;;93.45;48.13;;;;;;;;;;5035205;28;20034;-67
2021/01/11 09:32:11;;;;;;;95.15;49.92;;;;;;;;;;5035019;28;20021;-68
2021/01/11 09:34:36;;;;;;;92.88;49.70;;;;;;;;;;5020797;28;20021;-68
2021/01/11 09:37:02;;;;;;;103.38;52.78;;;;;;;;;;5015175;28;20033;-67
2021/01/11 09:39:27;;;;;;;90.50;49.42;;;;;;;;;;5014853;28;20022;-67
2021/01/11 09:41:54;;;;;;;100.85;52.63;;;;;;;;;;5014773;28;20022;-67
2021/01/11 09:44:20;;;;;;;104.28;54.13;;;;;;;;;;5013794;28;20038;-67
2021/01/11 09:46:52;;;;;;;109.35;55.75;;;;;;;;;;5014574;28;20067;-68
2021/01/11 09:49:19;;;;;;;110.97;56.25;;;;;;;;;;5014770;28;20500;-68
2021/01/11 09:51:44;;;;;;;109.10;54.60;;;;;;;;;;5014623;28;20022;-68
2021/01/11 09:54:10;;;;;;;102.57;54.00;;;;;;;;;;5014336;28;20361;-68
2021/01/11 09:56:36;;;;;;;106.53;54.55;;;;;;;;;;5029353;28;20384;-67
2021/01/11 09:59:02;;;;;;;101.53;52.03;;;;;;;;;;5034270;28;20033;-68
2021/01/11 10:01:38;;;;;;;196.82;89.32;;;;;;;;;;5033997;28;20018;-68
2021/01/11 10:04:03;;;;;;;126.40;62.60;;;;;;;;;;5033615;28;20055;-68
2021/01/11 10:06:42;;;;;;;79.18;43.10;;;;;;;;;;5034150;28;20029;-68
2021/01/11 10:09:09;;;;;;;87.80;46.75;;;;;;;;;;5031195;28;20032;-68
2021/01/11 10:11:35;;;;;;;82.32;43.10;;;;;;;;;;5033902;28;20057;-68
2021/01/11 10:14:00;;;;;;;68.00;36.42;;;;;;;;;;5034093;28;20106;-72
2021/01/11 10:16:26;;;;;;;88.13;49.35;;;;;;;;;;5033052;28;20018;-73
2021/01/11 10:18:52;;;;;;;80.40;42.58;;;;;;;;;;5033736;28;20017;-72
2021/01/11 10:21:17;;;;;;;97.53;50.63;;;;;;;;;;5033342;28;20291;-72
2021/01/11 10:23:44;;;;;;;91.82;49.58;;;;;;;;;;5033754;28;20357;-72
2021/01/11 10:26:17;;;;;;;86.10;43.10;;;;;;;;;;5033451;28;20025;-72
2021/01/11 10:28:42;;;;;;;69.95;34.42;;;;;;;;;;5033822;28;20391;-73
2021/01/11 10:31:08;;;;;;;83.93;44.05;;;;;;;;;;5033771;28;20109;-72
2021/01/11 10:33:33;;;;;;;81.80;39.58;;;;;;;;;;5032264;28;20037;-72
2021/01/11 10:35:59;;;;;;;101.30;53.05;;;;;;;;;;5033864;28;20036;-73
2021/01/11 10:38:26;;;;;;;92.90;50.33;;;;;;;;;;5032457;28;20112;-73
2021/01/11 10:40:52;;;;;;;105.28;52.40;;;;;;;;;;5033538;28;20502;-73
2021/01/11 10:43:21;;;;;;;104.55;52.33;;;;;;;;;;5032766;28;20033;-75
2021/01/11 10:45:47;;;;;;;96.80;51.83;;;;;;;;;;5033818;28;20029;-75
2021/01/11 10:48:13;;;;;;;110.03;54.20;;;;;;;;;;5033805;28;20491;-75
2021/01/11 10:50:38;;;;;;;93.53;49.10;;;;;;;;;;5033718;28;20036;-75
2021/01/11 10:53:05;;;;;;;91.43;50.10;;;;;;;;;;5034288;28;20120;-75
2021/01/11 10:55:30;;;;;;;102.35;52.53;;;;;;;;;;5032896;28;20132;-75
2021/01/11 10:57:57;;;;;;;96.55;51.58;;;;;;;;;;5033212;28;20177;-75
2021/01/11 11:00:23;;;;;;;119.80;57.55;;;;;;;;;;5033721;28;20499;-75
2021/01/11 11:02:49;;;;;;;100.32;50.13;;;;;;;;;;5033461;28;20028;-74
2021/01/11 11:05:14;;;;;;;85.78;43.95;;;;;;;;;;5032063;28;20112;-75
2021/01/11 11:07:40;;;;;;;104.20;52.65;;;;;;;;;;5033236;28;20075;-75
2021/01/11 11:10:06;;;;;;;90.15;47.47;;;;;;;;;;5032450;28;20030;-75
2021/01/11 11:12:32;;;;;;;86.35;44.28;;;;;;;;;;5032562;28;20531;-75
2021/01/11 11:15:00;;;;;;;94.40;49.50;;;;;;;;;;5033827;28;20438;-75
2021/01/11 11:17:30;;;;;;;110.07;54.67;;;;;;;;;;5033701;28;20021;-75
2021/01/11 11:19:55;;;;;;;109.50;56.95;;;;;;;;;;5033480;28;20499;-75
2021/01/11 11:22:21;;;;;;;105.40;53.97;;;;;;;;;;5031922;28;20045;-75
2021/01/11 11:24:48;;;;;;;100.82;52.08;;;;;;;;;;5033551;28;20350;-75
2021/01/11 11:27:14;;;;;;;105.88;55.55;;;;;;;;;;5032889;28;20030;-75
2021/01/11 11:29:39;;;;;;;97.72;47.67;;;;;;;;;;5032176;28;20471;-75
2021/01/11 11:32:05;;;;;;;63.45;32.75;;;;;;;;;;5033325;28;20037;-75
2021/01/11 11:34:32;;;;;;;67.93;33.65;;;;;;;;;;5031822;28;20057;-75
2021/01/11 11:36:58;;;;;;;79.88;39.10;;;;;;;;;;5033374;28;20392;-76
2021/01/11 11:39:26;;;;;;;98.47;48.85;;;;;;;;;;5033074;28;20079;-76
2021/01/11 11:42:00;;;;;;;96.50;47.03;;;;;;;;;;5033559;28;20018;-75
2021/01/11 11:44:27;;;;;;;103.10;49.85;;;;;;;;;;5033105;28;20026;-75
2021/01/11 11:46:53;;;;;;;106.10;52.15;;;;;;;;;;5031938;28;20391;-75
2021/01/11 11:49:18;;;;;;;103.10;52.42;;;;;;;;;;5031473;28;20026;-75
2021/01/11 11:51:44;;;;;;;110.88;54.10;;;;;;;;;;5032096;28;20022;-75
2021/01/11 11:54:10;;;;;;;108.03;52.20;;;;;;;;;;5032517;28;20060;-75
2021/01/11 11:56:40;;;;;;;101.05;51.67;;;;;;;;;;5013421;28;20179;-75
2021/01/11 11:59:06;;;;;;;77.93;38.80;;;;;;;;;;5013221;28;20579;-75
2021/01/11 12:01:38;;;;;;;72.20;37.58;;;;;;;;;;5013862;28;20018;-75
2021/01/11 12:04:04;;;;;;;81.47;40.88;;;;;;;;;;5013858;28;20022;-75
2021/01/11 12:06:37;;;;;;;99.18;49.00;;;;;;;;;;5013510;28;20087;-75
2021/01/11 12:09:04;;;;;;;89.18;43.53;;;;;;;;;;5014826;28;20030;-74
2021/01/11 12:11:39;;;;;;;153.60;69.30;;;;;;;;;;5017095;28;20108;-75
2021/01/11 12:14:04;;;;;;;143.55;62.15;;;;;;;;;;5016942;28;20068;-75
2021/01/11 12:16:30;;;;;;;116.70;55.50;;;;;;;;;;5015449;28;20026;-75
2021/01/11 12:18:55;;;;;;;82.57;41.72;;;;;;;;;;5015987;28;20032;-74
2021/01/11 12:21:31;;;;;;;64.03;34.85;;;;;;;;;;5014868;28;20018;-74
2021/01/11 12:23:57;;;;;;;56.00;27.98;;;;;;;;;;5015853;28;20049;-75
2021/01/11 12:26:22;;;;;;;51.42;24.58;;;;;;;;;;5015226;28;20045;-75
2021/01/11 12:28:48;;;;;;;59.10;29.02;;;;;;;;;;5015465;28;20372;-75
2021/01/11 12:31:16;;;;;;;49.60;24.70;;;;;;;;;;5015484;28;20033;-75
2021/01/11 12:33:41;;;;;;;49.03;24.85;;;;;;;;;;5016571;28;20092;-75
2021/01/11 12:36:07;;;;;;;47.17;25.92;;;;;;;;;;5003748;28;20022;-75
2021/01/11 12:38:32;;;;;;;51.50;25.00;;;;;;;;;;4997120;28;20026;-75
2021/01/11 12:40:58;;;;;;;51.20;25.42;;;;;;;;;;4996616;28;20019;-75
2021/01/11 12:43:23;;;;;;;50.28;24.05;;;;;;;;;;4994799;28;20038;-75
2021/01/11 12:45:49;;;;;;;50.55;25.00;;;;;;;;;;4996282;28;20030;-75
2021/01/11 12:48:14;;;;;;;52.15;26.60;;;;;;;;;;4996355;28;20039;-75
2021/01/11 12:50:41;;;;;;;57.25;27.60;;;;;;;;;;4997030;28;20037;-74
2021/01/11 12:53:06;;;;;;;63.88;29.33;;;;;;;;;;4996703;28;20378;-63
2021/01/11 12:55:32;;;;;;;67.93;29.75;;;;;;;;;;5006716;28;20117;-76
2021/01/11 12:57:58;;;;;;;51.45;26.83;;;;;;;;;;5016219;28;20080;-76
2021/01/11 13:00:24;;;;;;;48.72;23.80;;;;;;;;;;5015873;28;20045;-76
2021/01/11 13:02:50;;;;;;;51.22;24.90;;;;;;;;;;5016329;28;20053;-75
2021/01/11 13:05:16;;;;;;;48.53;25.05;;;;;;;;;;5015759;28;20021;-70
2021/01/11 13:07:41;;;;;;;52.58;27.40;;;;;;;;;;5015739;28;20084;-71
2021/01/11 13:10:07;;;;;;;54.08;27.15;;;;;;;;;;5016345;28;20473;-72
2021/01/11 13:12:33;;;;;;;56.42;26.10;;;;;;;;;;5015638;28;20045;-69
2021/01/11 13:15:01;;;;;;;54.40;28.42;;;;;;;;;;5015746;28;20029;-69
2021/01/11 13:17:27;;;;;;;56.33;28.60;;;;;;;;;;5015612;28;20053;-71
2021/01/11 13:19:52;;;;;;;58.17;27.98;;;;;;;;;;5015153;28;20052;-70
2021/01/11 13:22:18;;;;;;;52.92;26.90;;;;;;;;;;5015470;28;20058;-70
2021/01/11 13:24:43;;;;;;;49.65;25.52;;;;;;;;;;5034880;28;20025;-71
2021/01/11 13:27:09;;;;;;;54.85;26.98;;;;;;;;;;5035250;28;20029;-70
2021/01/11 13:29:34;;;;;;;53.15;25.63;;;;;;;;;;5034796;28;20025;-70
2021/01/11 13:32:00;;;;;;;51.53;27.63;;;;;;;;;;5033757;28;20030;-70
2021/01/11 13:34:25;;;;;;;59.55;29.48;;;;;;;;;;5035288;28;20108;-71
2021/01/11 13:36:51;;;;;;;57.95;27.67;;;;;;;;;;5034982;28;20026;-71
2021/01/11 13:39:17;;;;;;;54.65;27.83;;;;;;;;;;5034953;28;20017;-71
2021/01/11 13:41:44;;;;;;;53.30;27.95;;;;;;;;;;5034892;28;20033;-70
2021/01/11 13:44:11;;;;;;;54.80;28.58;;;;;;;;;;5034729;28;20021;-70
2021/01/11 13:46:41;;;;;;;71.47;36.42;;;;;;;;;;5034868;28;20037;-70
2021/01/11 13:49:06;;;;;;;69.88;35.50;;;;;;;;;;5034743;28;20426;-71
2021/01/11 13:51:32;;;;;;;72.93;39.00;;;;;;;;;;5033522;28;20033;-71
2021/01/11 13:53:57;;;;;;;73.60;38.08;;;;;;;;;;5034262;28;20088;-71
2021/01/11 13:56:23;;;;;;;75.40;39.15;;;;;;;;;;5033369;28;20136;-71
2021/01/11 13:58:49;;;;;;;73.82;39.78;;;;;;;;;;5033854;28;20570;-71
2021/01/11 14:01:15;;;;;;;86.00;45.20;;;;;;;;;;5034157;28;20026;-71
2021/01/11 14:03:40;;;;;;;106.65;52.97;;;;;;;;;;5033927;28;20057;-71
2021/01/11 14:06:06;;;;;;;142.50;66.10;;;;;;;;;;5034072;28;20128;-71
2021/01/11 14:08:31;;;;;;;126.45;60.00;;;;;;;;;;5033965;28;20055;-71
2021/01/11 14:10:57;;;;;;;128.27;62.30;;;;;;;;;;5033699;28;20029;-71
2021/01/11 14:13:22;;;;;;;140.77;65.28;;;;;;;;;;5034197;28;20468;-71
2021/01/11 14:15:48;;;;;;;255.40;103.13;;;;;;;;;;5034007;28;20029;-71
2021/01/11 14:18:13;;;;;;;480.85;197.23;;;;;;;;;;5034239;28;20132;-71
2021/01/11 14:20:39;;;;;;;594.33;244.25;;;;;;;;;;5034073;28;20049;-69
2021/01/11 14:23:04;;;;;;;1220.47;545.78;;;;;;;;;;5033997;28;20018;-69
2021/01/11 14:25:30;;;;;;;791.25;341.20;;;;;;;;;;5033997;28;20033;-69
2021/01/11 14:27:55;;;;;;;597.90;246.18;;;;;;;;;;5032755;28;20491;-69
2021/01/11 14:30:21;;;;;;;256.55;103.72;;;;;;;;;;5034080;28;20026;-69
2021/01/11 14:32:46;;;;;;;162.88;71.65;;;;;;;;;;5032950;28;20030;-69
2021/01/11 14:35:12;;;;;;;156.70;69.95;;;;;;;;;;5033688;28;20365;-69
2021/01/11 14:37:37;;;;;;;747.10;277.70;;;;;;;;;;5033657;28;20040;-68
2021/01/11 14:40:03;;;;;;;1348.18;532.25;;;;;;;;;;5033532;28;20029;-69
2021/01/11 14:42:29;;;;;;;1089.28;443.63;;;;;;;;;;5033603;28;20463;-68
2021/01/11 14:44:57;;;;;;;1086.75;438.50;;;;;;;;;;5033546;28;20029;-69